Time;durP1;ratioP1;P1;durP2;ratioP2;P2;SDS_P1;SDS_P2;PMS_P1;PMS_P2;Temp;Humidity;BMP_temperature;BMP_pressure;BME280_temperature;BME280_humidity;BME280_pressure;Samples;Min_cycle;Max_cycle;Signal;HPM_P1;HPM_P2
2023/07/29 00:00:34;;;;;;;7.30;3.90;;;;;;;20.24;100.00;98216.24;137299;1273;22207;-88
2023/07/29 00:03:55;;;;;;;4.30;3.90;;;;;;;20.08;100.00;98217.90;137030;1272;22227;-88
2023/07/29 00:06:57;;;;;;;8.30;5.10;;;;;;;20.03;100.00;98211.89;137180;1273;22538;-89
2023/07/29 00:09:58;;;;;;;7.60;4.10;;;;;;;20.07;100.00;98211.75;137607;1273;22517;-89
2023/07/29 00:12:59;;;;;;;6.80;4.00;;;;;;;20.15;100.00;98210.60;137256;1273;22302;-88
2023/07/29 00:16:00;;;;;;;9.00;4.60;;;;;;;20.15;100.00;98214.09;137238;1273;22281;-88
2023/07/29 00:19:02;;;;;;;4.80;3.70;;;;;;;20.00;100.00;98213.08;137607;1273;22238;-88
2023/07/29 00:22:03;;;;;;;8.50;3.70;;;;;;;19.84;100.00;98211.50;137360;1273;22353;-86
2023/07/29 00:25:04;;;;;;;6.40;4.70;;;;;;;19.73;100.00;98208.54;137370;1266;22237;-88
2023/07/29 00:28:06;;;;;;;10.30;3.90;;;;;;;19.73;100.00;98210.29;137553;1273;22209;-87
2023/07/29 00:31:07;;;;;;;8.30;3.60;;;;;;;19.62;100.00;98215.27;137333;1273;22562;-88
2023/07/29 00:34:09;;;;;;;6.30;3.50;;;;;;;19.53;100.00;98216.45;137358;1273;22405;-87
2023/07/29 00:37:11;;;;;;;6.90;3.60;;;;;;;19.41;100.00;98218.59;137370;1273;22549;-87
2023/07/29 00:40:14;;;;;;;12.10;4.90;;;;;;;19.51;100.00;98221.97;137225;1269;22599;-88
2023/07/29 00:43:15;;;;;;;7.60;3.90;;;;;;;19.54;100.00;98219.23;137208;1273;22597;-87
2023/07/29 00:46:17;;;;;;;4.30;3.50;;;;;;;19.45;100.00;98217.25;137386;1273;22231;-88
2023/07/29 00:49:18;;;;;;;7.70;3.80;;;;;;;19.49;100.00;98217.47;137393;1273;22255;-88
2023/07/29 00:52:19;;;;;;;5.90;3.20;;;;;;;19.66;100.00;98214.23;137474;1273;22155;-88
2023/07/29 00:55:20;;;;;;;5.20;4.00;;;;;;;19.76;100.00;98214.24;137452;1273;22183;-88
2023/07/29 00:58:21;;;;;;;7.50;3.90;;;;;;;19.80;100.00;98210.06;137456;1273;22370;-87
2023/07/29 01:01:23;;;;;;;7.20;3.90;;;;;;;19.74;100.00;98210.08;137538;1273;22889;-88
2023/07/29 01:04:24;;;;;;;3.80;3.40;;;;;;;19.60;100.00;98212.69;137598;1273;22275;-87
2023/07/29 01:07:25;;;;;;;7.10;3.50;;;;;;;19.37;100.00;98217.31;137402;1273;22265;-87
2023/07/29 01:10:28;;;;;;;8.50;3.70;;;;;;;19.24;100.00;98217.59;137236;1273;22544;-87
2023/07/29 01:13:29;;;;;;;5.90;3.40;;;;;;;19.21;100.00;98220.32;137139;1273;22540;-86
2023/07/29 01:16:31;;;;;;;11.40;4.80;;;;;;;19.31;100.00;98214.89;136867;1267;22637;-86
2023/07/29 01:19:32;;;;;;;3.90;3.50;;;;;;;19.35;100.00;98215.80;136741;1273;22154;-87
2023/07/29 01:22:33;;;;;;;8.70;3.60;;;;;;;19.35;100.00;98221.77;137232;1273;22622;-87
2023/07/29 01:25:34;;;;;;;10.70;3.60;;;;;;;19.44;100.00;98223.96;137365;1273;22573;-86
2023/07/29 01:28:36;;;;;;;4.90;3.90;;;;;;;19.52;100.00;98223.00;137162;1273;22287;-86
2023/07/29 01:31:37;;;;;;;4.80;3.30;;;;;;;19.59;100.00;98227.02;137564;1273;22893;-86
2023/07/29 01:34:38;;;;;;;5.80;4.50;;;;;;;19.59;100.00;98239.38;137099;1273;22249;-87
2023/07/29 01:37:39;;;;;;;5.60;3.60;;;;;;;19.56;100.00;98236.65;137026;1260;22578;-87
2023/07/29 01:40:41;;;;;;;6.20;3.10;;;;;;;19.36;100.00;98232.70;137303;1273;25914;-85
2023/07/29 01:43:43;;;;;;;3.80;3.40;;;;;;;19.34;100.00;98229.60;137294;1273;22201;-86
2023/07/29 01:46:45;;;;;;;6.70;3.70;;;;;;;19.47;100.00;98233.94;137127;1273;22546;-86
2023/07/29 01:49:46;;;;;;;8.10;4.70;;;;;;;19.42;100.00;98234.25;137272;1273;22559;-86
2023/07/29 01:52:47;;;;;;;5.40;4.20;;;;;;;19.38;100.00;98240.06;137406;1269;22221;-86
2023/07/29 01:55:48;;;;;;;7.90;4.00;;;;;;;19.38;100.00;98242.14;137431;1273;22439;-89
2023/07/29 01:58:50;;;;;;;22.40;4.40;;;;;;;19.28;100.00;98238.63;137565;1260;22545;-88
2023/07/29 02:01:51;;;;;;;5.70;3.80;;;;;;;19.32;100.00;98236.53;137480;1273;22182;-88
2023/07/29 02:04:52;;;;;;;7.60;4.00;;;;;;;19.25;100.00;98235.55;137492;1273;22201;-87
2023/07/29 02:07:53;;;;;;;9.90;5.00;;;;;;;19.12;100.00;98231.91;137551;1273;22442;-86
2023/07/29 02:10:55;;;;;;;6.20;3.80;;;;;;;19.08;100.00;98231.31;137603;1273;22294;-87
2023/07/29 02:13:56;;;;;;;8.20;4.30;;;;;;;19.00;100.00;98235.42;137209;1273;22435;-87
2023/07/29 02:16:57;;;;;;;5.70;4.00;;;;;;;19.01;100.00;98245.62;137548;1273;22237;-87
2023/07/29 02:19:58;;;;;;;9.30;5.30;;;;;;;19.10;100.00;98246.95;137520;1273;22534;-86
2023/07/29 02:22:59;;;;;;;4.90;4.20;;;;;;;18.81;100.00;98249.77;137669;1269;22264;-87
2023/07/29 02:26:00;;;;;;;12.60;4.80;;;;;;;18.77;100.00;98253.08;137491;1257;22560;-86
2023/07/29 02:29:02;;;;;;;5.00;4.50;;;;;;;18.89;100.00;98248.84;137622;1273;22420;-86
2023/07/29 02:32:03;;;;;;;8.30;4.90;;;;;;;19.05;100.00;98255.58;137379;1273;22243;-86
2023/07/29 02:35:04;;;;;;;7.50;5.40;;;;;;;19.17;100.00;98261.57;137571;1273;22396;-86
2023/07/29 02:38:06;;;;;;;7.50;4.60;;;;;;;19.19;100.00;98260.77;137395;1266;24239;-88
2023/07/29 02:41:08;;;;;;;7.30;4.10;;;;;;;19.04;100.00;98259.28;137413;1273;22226;-88
2023/07/29 02:44:10;;;;;;;8.10;4.40;;;;;;;18.98;100.00;98257.16;137458;1273;22536;-87
2023/07/29 02:47:11;;;;;;;5.80;4.10;;;;;;;19.08;100.00;98263.04;137589;1273;22204;-88
2023/07/29 02:50:13;;;;;;;8.80;5.00;;;;;;;19.19;100.00;98264.15;137378;1273;22561;-88
2023/07/29 02:53:14;;;;;;;7.70;5.10;;;;;;;19.25;100.00;98266.05;137269;1273;22191;-87
2023/07/29 02:56:15;;;;;;;15.40;6.10;;;;;;;19.31;100.00;98270.08;137354;1273;22556;-85
2023/07/29 02:59:20;;;;;;;7.20;5.20;;;;;;;19.15;100.00;98269.91;137040;1270;22273;-87
2023/07/29 03:02:21;;;;;;;7.10;5.30;;;;;;;19.12;100.00;98267.72;137539;1269;22219;-86
2023/07/29 03:06:01;;;;;;;9.90;5.20;;;;;;;19.19;100.00;98271.89;137002;1273;22452;-87
2023/07/29 03:09:04;;;;;;;6.30;4.50;;;;;;;18.80;100.00;98281.34;137617;1273;22268;-86
2023/07/29 03:12:06;;;;;;;7.10;5.00;;;;;;;17.74;100.00;98290.41;137422;1273;22337;-86
2023/07/29 03:15:07;;;;;;;8.50;5.10;;;;;;;17.80;100.00;98294.14;137568;1273;22600;-85
2023/07/29 03:18:10;;;;;;;11.40;4.90;;;;;;;17.52;100.00;98302.04;137546;1273;22055;-86
2023/07/29 03:21:11;;;;;;;66.00;9.70;;;;;;;17.11;100.00;98305.08;137601;1273;22175;-85
2023/07/29 03:24:12;;;;;;;12.10;5.60;;;;;;;17.10;100.00;98295.08;137485;1273;22263;-87
2023/07/29 03:27:15;;;;;;;12.40;6.00;;;;;;;17.74;100.00;98291.83;137535;1268;22281;-86
2023/07/29 03:30:16;;;;;;;10.40;5.00;;;;;;;18.16;100.00;98288.95;137463;1273;22377;-87
2023/07/29 03:36:56;;;;;;;20.00;6.10;;;;;;;18.73;100.00;98291.98;136987;1277;22537;-85
2023/07/29 03:39:57;;;;;;;9.70;5.60;;;;;;;18.85;100.00;98290.89;137098;1277;22293;-86
2023/07/29 03:42:59;;;;;;;5.90;4.60;;;;;;;18.34;100.00;98294.31;137230;1278;22250;-87
2023/07/29 03:46:00;;;;;;;171.50;15.60;;;;;;;18.01;100.00;98300.82;137178;1277;22299;-82
2023/07/29 03:49:02;;;;;;;33.40;7.40;;;;;;;17.76;100.00;98303.23;136984;1277;22545;-85
2023/07/29 03:52:03;;;;;;;7.50;5.40;;;;;;;18.09;100.00;98301.48;137174;1278;22250;-87
2023/07/29 03:55:05;;;;;;;9.40;5.70;;;;;;;18.46;100.00;98292.38;137097;1277;22647;-87
2023/07/29 03:58:06;;;;;;;11.00;5.90;;;;;;;18.77;100.00;98290.08;136777;1277;22757;-87
2023/07/29 04:01:07;;;;;;;8.50;6.30;;;;;;;18.95;100.00;98293.59;137166;1277;22408;-87
2023/07/29 04:04:09;;;;;;;7.70;5.20;;;;;;;19.08;100.00;98297.80;137101;1278;22283;-87
2023/07/29 04:07:10;;;;;;;12.30;5.80;;;;;;;18.75;100.00;98298.44;137187;1277;22971;-86
2023/07/29 04:10:45;;;;;;;;;;;;;;;;;;;;;
2023/07/29 04:14:04;;;;;;;11.90;6.40;;;;;;;19.25;100.00;98300.80;137155;1273;22532;-86
2023/07/29 04:17:13;;;;;;;6.40;5.30;;;;;;;19.57;100.00;98299.09;137473;1273;22254;-85
2023/07/29 04:20:39;;;;;;;11.90;6.80;;;;;;;19.64;100.00;98301.50;137346;1273;22204;-84
2023/07/29 04:23:40;;;;;;;10.40;6.30;;;;;;;19.75;100.00;98300.27;137431;1273;22248;-88
2023/07/29 04:26:42;;;;;;;5.30;4.80;;;;;;;19.88;100.00;98300.86;137487;1273;22309;-85
2023/07/29 04:29:43;;;;;;;11.70;6.70;;;;;;;20.10;100.00;98303.33;137508;1273;22558;-86
2023/07/29 04:32:44;;;;;;;12.50;6.90;;;;;;;20.39;100.00;98300.89;137240;1273;22413;-86
2023/07/29 04:35:46;;;;;;;8.70;6.50;;;;;;;20.66;100.00;98305.02;137381;1273;22251;-86
2023/07/29 04:38:47;;;;;;;12.20;5.90;;;;;;;20.86;100.00;98304.46;137387;1273;22539;-85
2023/07/29 04:41:58;;;;;;;9.10;5.90;;;;;;;21.11;100.00;98305.64;137399;1273;22288;-86
2023/07/29 04:44:59;;;;;;;9.70;6.00;;;;;;;21.22;100.00;98305.91;137189;1267;22262;-86
2023/07/29 04:48:04;;;;;;;7.10;5.50;;;;;;;21.42;100.00;98306.02;137513;1273;24175;-86
2023/07/29 04:51:08;;;;;;;10.50;4.90;;;;;;;21.54;100.00;98309.25;137589;1273;22228;-85
2023/07/29 04:54:09;;;;;;;5.80;5.30;;;;;;;21.35;100.00;98310.02;137124;1273;22297;-85
2023/07/29 04:57:10;;;;;;;7.90;7.10;;;;;;;21.46;100.00;98313.11;137587;1273;22579;-84
2023/07/29 05:00:12;;;;;;;11.60;6.60;;;;;;;21.53;100.00;98312.46;137458;1273;22286;-83
2023/07/29 05:03:13;;;;;;;10.40;7.20;;;;;;;21.34;100.00;98311.27;137583;1273;22242;-85
2023/07/29 05:06:14;;;;;;;11.20;7.90;;;;;;;21.28;100.00;98317.91;137475;1273;22101;-81
2023/07/29 05:09:15;;;;;;;12.90;6.40;;;;;;;21.34;100.00;98317.83;137509;1273;23116;-79
2023/07/29 05:12:17;;;;;;;12.40;7.10;;;;;;;21.40;100.00;98319.88;137579;1273;22328;-81
2023/07/29 05:15:19;;;;;;;10.90;5.60;;;;;;;21.59;100.00;98324.27;137415;1273;22623;-84
2023/07/29 05:18:20;;;;;;;6.00;5.10;;;;;;;21.74;100.00;98329.86;137524;1273;22300;-82
2023/07/29 05:21:21;;;;;;;7.90;6.20;;;;;;;21.87;100.00;98333.74;137587;1273;22832;-82
2023/07/29 05:24:23;;;;;;;11.80;5.90;;;;;;;21.88;100.00;98337.10;137595;1273;22169;-82
2023/07/29 05:27:24;;;;;;;12.50;5.50;;;;;;;21.73;100.00;98340.19;137566;1269;22801;-82
2023/07/29 05:30:30;;;;;;;;;;;;;;;21.37;100.00;98343.39;137637;1273;22349;-84
2023/07/29 05:33:31;;;;;;;8.30;5.50;;;;;;;21.21;100.00;98343.46;137519;1273;22311;-84
2023/07/29 05:36:33;;;;;;;6.90;4.30;;;;;;;21.23;100.00;98340.55;137568;1273;22324;-83
2023/07/29 05:39:34;;;;;;;7.10;5.40;;;;;;;21.50;100.00;98340.73;137433;1273;189092;-84
2023/07/29 05:42:35;;;;;;;9.40;5.70;;;;;;;21.76;100.00;98345.74;137273;1273;22270;-84
2023/07/29 05:45:36;;;;;;;6.70;5.10;;;;;;;21.91;100.00;98343.86;137517;1273;22459;-83
2023/07/29 05:48:37;;;;;;;6.70;4.20;;;;;;;22.14;100.00;98349.12;137239;1273;22245;-84
2023/07/29 05:51:38;;;;;;;7.30;4.40;;;;;;;22.46;100.00;98348.27;137119;1273;22202;-83
2023/07/29 05:54:39;;;;;;;4.80;4.10;;;;;;;22.82;100.00;98347.04;137501;1269;22538;-83
2023/07/29 05:57:40;;;;;;;6.00;3.80;;;;;;;22.98;100.00;98351.66;137050;1273;22369;-83
2023/07/29 06:00:42;;;;;;;8.70;4.00;;;;;;;22.65;100.00;98358.63;137097;1273;22685;-81
2023/07/29 06:03:43;;;;;;;4.90;3.80;;;;;;;22.53;100.00;98363.20;137458;1273;22877;-84
2023/07/29 06:06:44;;;;;;;7.70;3.60;;;;;;;22.67;100.00;98365.62;137262;1269;22197;-83
2023/07/29 06:09:45;;;;;;;4.30;3.70;;;;;;;22.72;100.00;98368.93;137023;1273;22305;-83
2023/07/29 06:12:47;;;;;;;5.50;3.40;;;;;;;22.69;100.00;98367.48;137302;1273;23300;-83
2023/07/29 06:15:48;;;;;;;5.60;3.60;;;;;;;22.60;100.00;98369.85;137431;1273;22250;-83
2023/07/29 06:18:49;;;;;;;8.00;4.00;;;;;;;22.67;100.00;98370.41;137501;1273;22904;-83
2023/07/29 06:21:50;;;;;;;13.60;3.90;;;;;;;22.82;100.00;98369.02;137531;1273;22567;-83
2023/07/29 06:24:51;;;;;;;8.80;4.00;;;;;;;23.05;100.00;98370.30;137343;1273;22315;-83
2023/07/29 06:27:52;;;;;;;3.50;3.20;;;;;;;23.04;100.00;98366.30;137609;1273;22639;-83
2023/07/29 06:30:53;;;;;;;5.00;4.00;;;;;;;23.21;100.00;98360.33;137560;1273;22249;-83
2023/07/29 06:33:55;;;;;;;6.20;3.70;;;;;;;23.42;100.00;98358.84;137580;1262;22252;-83
2023/07/29 06:36:56;;;;;;;6.70;3.90;;;;;;;23.76;100.00;98358.80;136933;1273;22737;-78
2023/07/29 06:39:57;;;;;;;3.30;3.00;;;;;;;23.97;100.00;98363.27;137544;1273;22857;-82
2023/07/29 06:42:58;;;;;;;5.60;3.20;;;;;;;24.00;100.00;98361.71;137617;1273;22078;-84
2023/07/29 06:45:59;;;;;;;5.80;4.10;;;;;;;24.14;100.00;98359.56;137589;1273;22389;-83
2023/07/29 06:49:00;;;;;;;3.20;2.90;;;;;;;24.26;100.00;98363.41;137294;1273;22266;-85
2023/07/29 06:52:01;;;;;;;6.00;3.50;;;;;;;24.13;100.00;98364.26;137482;1273;22997;-82
2023/07/29 06:55:02;;;;;;;13.90;5.40;;;;;;;23.94;100.00;98370.02;137257;1273;22309;-82
2023/07/29 06:58:03;;;;;;;5.40;3.30;;;;;;;24.04;100.00;98364.66;137062;1273;23211;-81
2023/07/29 07:01:04;;;;;;;4.90;3.20;;;;;;;23.97;100.00;98367.89;137176;1273;22543;-81
2023/07/29 07:04:06;;;;;;;4.20;3.20;;;;;;;24.04;100.00;98368.62;137503;1273;22441;-82
2023/07/29 07:07:07;;;;;;;5.20;4.10;;;;;;;24.21;100.00;98367.59;137070;1273;22516;-81
2023/07/29 07:10:08;;;;;;;6.70;3.70;;;;;;;24.50;100.00;98368.27;137187;1273;22697;-81
2023/07/29 07:13:09;;;;;;;6.80;4.20;;;;;;;24.85;100.00;98367.85;137288;1273;22607;-82
2023/07/29 07:16:10;;;;;;;3.60;3.30;;;;;;;25.09;100.00;98365.30;136984;1273;22579;-80
2023/07/29 07:19:11;;;;;;;4.20;2.80;;;;;;;25.14;100.00;98363.83;137294;1273;22384;-81
2023/07/29 07:22:12;;;;;;;4.20;3.70;;;;;;;25.21;100.00;98360.23;137612;1272;22056;-80
2023/07/29 07:25:13;;;;;;;6.10;3.90;;;;;;;25.29;100.00;98363.33;137574;1270;22240;-81
2023/07/29 07:28:14;;;;;;;4.40;2.20;;;;;;;25.54;100.00;98364.25;137486;1273;22222;-82
2023/07/29 07:31:16;;;;;;;4.10;2.70;;;;;;;25.75;100.00;98365.97;137591;1272;22367;-82
2023/07/29 07:34:17;;;;;;;2.50;2.30;;;;;;;25.88;100.00;98359.84;137416;1273;22129;-80
2023/07/29 07:37:18;;;;;;;2.80;2.50;;;;;;;25.99;100.00;98362.59;137405;1273;22697;-82
2023/07/29 07:40:19;;;;;;;4.70;2.50;;;;;;;25.78;78.60;98367.21;137328;1273;22594;-82
2023/07/29 07:43:20;;;;;;;2.40;2.20;;;;;;;25.30;64.63;98366.66;137373;1273;22213;-82
2023/07/29 07:46:22;;;;;;;3.20;2.90;;;;;;;25.16;66.00;98362.14;137545;1273;22347;-80
2023/07/29 07:49:23;;;;;;;3.70;2.70;;;;;;;25.37;67.19;98359.19;137177;1273;22549;-81
2023/07/29 07:52:24;;;;;;;2.70;2.50;;;;;;;25.73;66.23;98366.05;137537;1273;22276;-81
2023/07/29 07:55:25;;;;;;;2.80;2.60;;;;;;;25.64;64.91;98365.83;136967;1273;22310;-80
2023/07/29 07:58:26;;;;;;;3.50;2.80;;;;;;;25.45;65.53;98361.20;137602;1272;22206;-80
2023/07/29 08:01:30;;;;;;;2.60;2.40;;;;;;;25.61;65.55;98359.77;137482;1272;22054;-80
2023/07/29 08:04:31;;;;;;;5.20;2.90;;;;;;;25.89;65.18;98356.91;137186;1273;22265;-80
2023/07/29 08:07:32;;;;;;;3.10;2.80;;;;;;;25.97;64.19;98355.91;137225;1273;22255;-81
2023/07/29 08:10:34;;;;;;;3.60;3.10;;;;;;;25.99;64.40;98357.23;137461;1273;22185;-81
2023/07/29 08:13:35;;;;;;;6.10;3.40;;;;;;;25.96;64.73;98354.20;137172;1272;22409;-79
2023/07/29 08:16:36;;;;;;;6.90;3.90;;;;;;;26.12;65.00;98351.86;137121;1273;22434;-79
2023/07/29 08:19:37;;;;;;;3.10;2.50;;;;;;;26.27;64.13;98352.05;137485;1273;22099;-79
2023/07/29 08:22:38;;;;;;;4.30;2.50;;;;;;;26.30;62.76;98349.20;137504;1273;22265;-81
2023/07/29 08:25:41;;;;;;;3.00;2.70;;;;;;;26.21;62.74;98350.99;137359;1273;22229;-82
2023/07/29 08:28:42;;;;;;;2.90;2.70;;;;;;;26.30;63.26;98349.05;137358;1272;22540;-83
2023/07/29 08:31:43;;;;;;;4.10;3.00;;;;;;;26.61;62.57;98346.59;137432;1273;22238;-83
2023/07/29 08:34:45;;;;;;;10.70;3.00;;;;;;;26.88;62.47;98346.92;137473;1273;22395;-83
2023/07/29 08:37:46;;;;;;;8.00;2.70;;;;;;;27.16;61.34;98341.45;137513;1257;22566;-83
2023/07/29 08:40:47;;;;;;;3.90;2.40;;;;;;;27.36;60.71;98339.48;137544;1273;22221;-82
2023/07/29 08:43:48;;;;;;;2.50;2.30;;;;;;;27.57;60.05;98338.80;137312;1273;22709;-82
2023/07/29 08:46:49;;;;;;;8.00;2.70;;;;;;;27.65;59.76;98329.95;137576;1273;22221;-83
2023/07/29 08:49:50;;;;;;;2.90;2.10;;;;;;;27.83;59.13;98325.71;137508;1273;22738;-84
2023/07/29 08:52:51;;;;;;;3.50;2.40;;;;;;;27.83;58.59;98322.30;137236;1273;22253;-83
2023/07/29 08:55:55;;;;;;;2.30;2.10;;;;;;;27.78;58.88;98317.44;137579;1273;22243;-83
2023/07/29 08:58:56;;;;;;;5.90;3.40;;;;;;;27.90;58.28;98316.14;137537;1273;22317;-83
2023/07/29 09:01:57;;;;;;;4.50;2.40;;;;;;;28.03;57.88;98315.77;137376;1273;22259;-82
2023/07/29 09:04:58;;;;;;;4.80;2.30;;;;;;;28.07;57.06;98319.80;137490;1273;22267;-80
2023/07/29 09:08:00;;;;;;;2.80;2.40;;;;;;;28.06;56.61;98313.05;137425;1273;22566;-79
2023/07/29 09:11:01;;;;;;;3.60;2.80;;;;;;;28.07;57.04;98314.26;137481;1273;22235;-83
2023/07/29 09:14:02;;;;;;;2.70;2.30;;;;;;;28.06;55.23;98310.39;137465;1267;22406;-83
2023/07/29 09:17:03;;;;;;;2.40;2.20;;;;;;;27.90;55.22;98312.20;137569;1273;22153;-81
2023/07/29 09:20:04;;;;;;;3.70;3.00;;;;;;;27.95;56.73;98307.36;137532;1273;22299;-82
2023/07/29 09:23:05;;;;;;;4.10;2.40;;;;;;;28.35;56.70;98306.64;137564;1273;22192;-81
2023/07/29 09:26:06;;;;;;;3.60;2.80;;;;;;;28.52;53.73;98305.45;137544;1273;22238;-84
2023/07/29 09:29:08;;;;;;;2.70;2.10;;;;;;;28.10;53.19;98307.24;137492;1273;22211;-84
2023/07/29 09:32:09;;;;;;;5.90;3.00;;;;;;;28.19;54.39;98302.55;137557;1273;22173;-84
2023/07/29 09:35:10;;;;;;;5.90;5.30;;;;;;;28.07;53.10;98304.42;137512;1273;22177;-83
2023/07/29 09:38:11;;;;;;;6.90;3.60;;;;;;;27.91;53.30;98302.50;137596;1273;22966;-81
2023/07/29 09:41:12;;;;;;;2.80;2.40;;;;;;;27.93;54.87;98301.06;137542;1273;22242;-81
2023/07/29 09:44:13;;;;;;;2.40;1.90;;;;;;;28.22;54.77;98302.52;137556;1273;22265;-80
2023/07/29 09:47:14;;;;;;;2.60;2.40;;;;;;;28.44;53.45;98296.58;137538;1272;22274;-79
2023/07/29 09:50:15;;;;;;;2.60;2.50;;;;;;;28.72;52.96;98297.82;137430;1273;22207;-79
2023/07/29 09:53:16;;;;;;;2.60;2.40;;;;;;;28.91;52.42;98293.66;137564;1272;22334;-79
2023/07/29 09:56:17;;;;;;;3.30;3.10;;;;;;;29.16;52.23;98294.52;137540;1273;22097;-80
2023/07/29 09:59:19;;;;;;;15.60;3.30;;;;;;;29.35;50.96;98289.91;137508;1273;22249;-82
2023/07/29 10:02:20;;;;;;;2.30;2.20;;;;;;;29.33;50.10;98281.40;137561;1272;22324;-82
2023/07/29 10:05:21;;;;;;;2.30;2.20;;;;;;;29.09;50.28;98279.81;137557;1273;22258;-82
2023/07/29 10:08:22;;;;;;;14.00;3.20;;;;;;;28.82;49.05;98277.95;137540;1273;22226;-83
2023/07/29 10:11:24;;;;;;;4.80;2.80;;;;;;;29.17;50.14;98276.67;137589;1273;23045;-85
2023/07/29 10:14:28;;;;;;;4.60;2.40;;;;;;;29.33;48.97;98274.77;137575;1273;22198;-82
2023/07/29 10:17:29;;;;;;;2.80;2.50;;;;;;;29.25;48.75;98271.66;137580;1273;22249;-82
2023/07/29 10:20:30;;;;;;;3.10;2.40;;;;;;;29.37;49.02;98273.59;137587;1273;22213;-80
2023/07/29 10:23:31;;;;;;;2.30;2.10;;;;;;;29.60;48.22;98273.91;137550;1272;22200;-81
2023/07/29 10:26:33;;;;;;;3.40;2.70;;;;;;;29.48;48.88;98268.30;137545;1273;22710;-80
2023/07/29 10:29:34;;;;;;;2.00;1.90;;;;;;;29.85;46.83;98271.15;137545;1273;22606;-80
2023/07/29 10:32:35;;;;;;;4.50;2.10;;;;;;;29.92;46.58;98270.64;137511;1272;22243;-81
2023/07/29 10:35:36;;;;;;;7.00;2.50;;;;;;;29.57;45.85;98267.00;137488;1273;22164;-80
2023/07/29 10:38:37;;;;;;;4.00;2.90;;;;;;;29.19;48.26;98262.56;137520;1272;22240;-81
2023/07/29 10:41:38;;;;;;;5.00;2.50;;;;;;;28.89;49.62;98263.30;137545;1273;22393;-81
2023/07/29 10:44:39;;;;;;;4.00;3.30;;;;;;;28.57;49.50;98263.23;137575;1273;22287;-82
2023/07/29 10:47:40;;;;;;;3.00;2.70;;;;;;;28.74;50.24;98257.43;137606;1272;22261;-82
2023/07/29 10:50:41;;;;;;;4.00;2.70;;;;;;;28.91;49.34;98257.61;137589;1273;22243;-80
2023/07/29 10:53:43;;;;;;;5.40;3.40;;;;;;;29.11;49.25;98254.58;137590;1273;22090;-80
2023/07/29 10:56:44;;;;;;;4.70;2.90;;;;;;;29.34;48.43;98256.98;137580;1273;22157;-80
2023/07/29 10:59:45;;;;;;;3.90;3.00;;;;;;;29.52;47.93;98253.17;137535;1273;22257;-81
2023/07/29 11:02:46;;;;;;;2.40;2.30;;;;;;;29.57;47.70;98251.55;137187;1273;22563;-80
2023/07/29 11:05:48;;;;;;;3.10;2.60;;;;;;;29.55;45.70;98250.78;137542;1273;22407;-82
2023/07/29 11:08:49;;;;;;;2.50;2.30;;;;;;;29.48;45.98;98252.08;137248;1273;22564;-82
2023/07/29 11:11:50;;;;;;;2.90;2.50;;;;;;;29.41;44.71;98247.36;137198;1273;22469;-85
2023/07/29 11:14:51;;;;;;;4.80;2.60;;;;;;;29.41;44.45;98240.16;137563;1273;22180;-82
2023/07/29 11:17:52;;;;;;;2.70;2.50;;;;;;;29.37;44.69;98237.95;137168;1273;22715;-83
2023/07/29 11:20:53;;;;;;;6.60;2.30;;;;;;;29.53;44.76;98239.48;137118;1273;22949;-82
2023/07/29 11:23:54;;;;;;;3.00;2.30;;;;;;;29.53;44.05;98234.48;137558;1273;22815;-83
2023/07/29 11:26:56;;;;;;;3.70;3.40;;;;;;;29.63;44.69;98230.88;137208;1272;22426;-83
2023/07/29 11:29:57;;;;;;;3.50;2.50;;;;;;;29.80;45.14;98222.95;137407;1273;22321;-81
2023/07/29 11:32:58;;;;;;;3.90;2.60;;;;;;;29.66;44.88;98227.22;137480;1267;22232;-83
2023/07/29 11:35:59;;;;;;;2.60;2.40;;;;;;;29.65;46.26;98216.52;137421;1270;22432;-82
2023/07/29 11:39:00;;;;;;;3.10;2.90;;;;;;;29.59;45.01;98220.74;137178;1273;22270;-83
2023/07/29 11:42:01;;;;;;;3.30;3.10;;;;;;;29.73;45.45;98216.13;137382;1273;22589;-81
2023/07/29 11:45:03;;;;;;;2.60;2.40;;;;;;;30.11;44.91;98209.27;137372;1269;22566;-82
2023/07/29 11:48:04;;;;;;;2.80;2.60;;;;;;;30.43;44.81;98200.85;137101;1273;22671;-84
2023/07/29 11:51:05;;;;;;;2.70;2.50;;;;;;;30.70;44.06;98201.01;137162;1273;22517;-83
2023/07/29 11:54:06;;;;;;;3.00;2.80;;;;;;;30.75;44.14;98199.53;137466;1273;22135;-82
2023/07/29 11:57:07;;;;;;;2.60;2.40;;;;;;;30.57;43.07;98195.41;137077;1273;22810;-83
2023/07/29 12:00:09;;;;;;;3.50;3.30;;;;;;;30.63;43.57;98191.58;137588;1273;22825;-83
2023/07/29 12:03:11;;;;;;;5.70;3.10;;;;;;;30.63;43.11;98185.98;137608;1273;22655;-84
2023/07/29 12:06:13;;;;;;;3.00;2.70;;;;;;;30.80;42.81;98186.23;137217;1273;22325;-83
2023/07/29 12:09:14;;;;;;;3.90;2.80;;;;;;;30.83;42.01;98187.02;137588;1273;22692;-82
2023/07/29 12:12:15;;;;;;;5.50;2.40;;;;;;;30.89;41.95;98187.09;137594;1273;22494;-83
2023/07/29 12:15:16;;;;;;;2.60;2.40;;;;;;;30.94;41.44;98177.88;137092;1273;22313;-82
2023/07/29 12:18:17;;;;;;;3.30;3.00;;;;;;;30.86;41.46;98180.00;137020;1273;22240;-83
2023/07/29 12:21:18;;;;;;;5.40;2.90;;;;;;;30.50;42.30;98181.23;137542;1272;22543;-82
2023/07/29 12:24:19;;;;;;;3.70;3.10;;;;;;;30.17;43.06;98182.73;137340;1273;22209;-83
2023/07/29 12:27:20;;;;;;;3.10;2.80;;;;;;;29.91;43.87;98181.52;137094;1273;22232;-83
2023/07/29 12:30:21;;;;;;;3.60;2.40;;;;;;;29.74;44.45;98179.62;137592;1273;22117;-82
2023/07/29 12:33:22;;;;;;;2.70;2.50;;;;;;;29.61;44.94;98179.02;137617;1273;22217;-83
2023/07/29 12:36:23;;;;;;;3.30;3.10;;;;;;;29.52;44.59;98176.29;137158;1266;22185;-83
2023/07/29 12:39:24;;;;;;;3.00;2.80;;;;;;;29.45;45.13;98174.80;137020;1273;22542;-83
2023/07/29 12:42:25;;;;;;;3.40;3.10;;;;;;;29.39;45.31;98169.48;137524;1273;22197;-84
2023/07/29 12:45:27;;;;;;;7.10;3.50;;;;;;;29.29;45.32;98167.55;136909;1272;22421;-85
2023/07/29 12:48:28;;;;;;;3.60;3.00;;;;;;;29.39;45.49;98164.52;136880;1273;22800;-83
2023/07/29 12:51:29;;;;;;;3.00;2.80;;;;;;;29.30;44.34;98158.73;137571;1273;22543;-86
2023/07/29 12:54:30;;;;;;;360.00;35.00;;;;;;;29.30;43.91;98158.05;137043;1273;22209;-84
2023/07/29 12:57:31;;;;;;;120.70;15.00;;;;;;;29.45;44.00;98149.38;136976;1266;22679;-84
2023/07/29 13:00:32;;;;;;;126.90;13.60;;;;;;;29.81;43.70;98149.49;137475;1272;22533;-84
2023/07/29 13:03:33;;;;;;;122.60;12.80;;;;;;;30.18;42.85;98146.26;137202;1273;22918;-84
2023/07/29 13:06:34;;;;;;;68.10;7.80;;;;;;;30.45;41.61;98145.36;137119;1267;22388;-84
2023/07/29 13:09:35;;;;;;;80.30;9.80;;;;;;;30.71;41.58;98135.80;137341;1273;22537;-83
2023/07/29 13:12:36;;;;;;;72.20;9.50;;;;;;;30.91;42.20;98133.42;137434;1272;22551;-83
2023/07/29 13:15:37;;;;;;;57.80;6.70;;;;;;;31.09;41.79;98137.15;137132;1260;22195;-83
2023/07/29 13:18:38;;;;;;;30.90;4.80;;;;;;;31.25;40.92;98135.63;137120;1273;22545;-85
2023/07/29 13:21:40;;;;;;;83.70;10.00;;;;;;;31.43;40.66;98132.33;137590;1273;22937;-83
2023/07/29 13:24:41;;;;;;;67.90;9.70;;;;;;;31.63;40.55;98128.61;137156;1273;22357;-84
2023/07/29 13:27:42;;;;;;;53.10;7.90;;;;;;;31.73;40.17;98124.06;137302;1273;22552;-85
2023/07/29 13:30:46;;;;;;;49.20;7.70;;;;;;;31.70;39.34;98126.10;137451;1273;22267;-85
2023/07/29 13:33:47;;;;;;;141.90;17.60;;;;;;;31.65;39.73;98119.27;137218;1273;22766;-84
2023/07/29 13:36:48;;;;;;;38.20;6.40;;;;;;;31.56;39.82;98121.50;137241;1273;22647;-84
2023/07/29 13:39:49;;;;;;;22.10;5.70;;;;;;;31.55;39.97;98123.05;137677;1249;22336;-84
2023/07/29 13:42:50;;;;;;;33.10;5.50;;;;;;;31.78;39.98;98114.95;137048;1273;22261;-84
2023/07/29 13:45:51;;;;;;;25.80;4.90;;;;;;;32.06;39.49;98117.40;137207;1273;22361;-83
2023/07/29 13:48:52;;;;;;;79.20;13.40;;;;;;;32.22;38.86;98113.83;137504;1273;22544;-83
2023/07/29 13:51:53;;;;;;;12.50;4.20;;;;;;;32.32;38.95;98111.94;137331;1273;22256;-85
2023/07/29 13:54:54;;;;;;;14.50;4.30;;;;;;;32.40;38.82;98112.98;137145;1273;23217;-85
2023/07/29 13:57:55;;;;;;;20.00;5.40;;;;;;;32.34;38.34;98104.91;137386;1273;22537;-85
2023/07/29 14:00:56;;;;;;;9.80;3.40;;;;;;;32.36;38.70;98102.78;137461;1273;22202;-84